Custer, Montana
Current Conditions -  °F | °C
As of 12:53 PM on Monday 22 Dec 2014 (Local Time) from KBIL Reporting Station
Broken Clouds Broken Clouds  
Wind Chill: 32°   Ceiling: 8000
Heat Index: 41°   Visibility: 10mi
Dew Point: 23°   Wind: 17mph
Humidity: 49%   Direction: 300°WNW
Pressure: 29.81"   Gusts: 28mph
Location:  46.13°N, 107.56°W
Report Text: KBIL 221953Z 30015G24KT 10SM FEW030 SCT065 BKN080 05/M05 A2981 RMK AO2 PK WND 29026/1914 SLP109 SHSN DSNT N-NE SE NW T00501050
Loading
Personal Weather Stations






























Interactive Weather Map New forecast layout! Learn more

10-Day Weather Forecast

Advertisements
Track Severe Weather on mobile